Time;durP1;ratioP1;P1;durP2;ratioP2;P2;SDS_P1;SDS_P2;PMS_P1;PMS_P2;Temp;Humidity;BMP_temperature;BMP_pressure;BME280_temperature;BME280_humidity;BME280_pressure;Samples;Min_cycle;Max_cycle;Signal;HPM_P1;HPM_P2
2022/06/21 00:02:18;;;;;;;1.40;0.93;;;20.70;64.60;;;21.26;44.49;98613.50;4986206;28;114064;-89
2022/06/21 00:04:45;;;;;;;1.40;1.00;;;20.70;64.80;;;21.26;44.32;98610.69;4971770;28;122928;-89
2022/06/21 00:07:21;;;;;;;1.70;1.10;;;20.70;64.80;;;21.24;44.52;98613.88;4981314;28;123717;-89
2022/06/21 00:09:50;;;;;;;1.20;0.93;;;20.70;64.90;;;21.21;44.16;98609.03;4981801;28;114213;-89
2022/06/21 00:12:18;;;;;;;1.50;1.10;;;20.60;64.80;;;21.18;44.38;98616.25;4982775;28;114147;-89
2022/06/21 00:14:45;;;;;;;1.30;1.20;;;20.60;64.80;;;21.15;44.39;98604.97;4973215;28;124619;-89
2022/06/21 00:17:20;;;;;;;1.47;1.10;;;20.60;64.90;;;21.12;44.71;98620.63;4987210;28;124033;-89
2022/06/21 00:19:47;;;;;;;1.43;1.00;;;20.60;64.90;;;21.08;44.46;98611.34;4984741;28;115604;-89
2022/06/21 00:22:17;;;;;;;1.20;1.10;;;20.60;64.90;;;21.04;44.54;98610.50;4980140;28;114972;-88
2022/06/21 00:24:44;;;;;;;1.03;0.90;;;20.50;64.90;;;21.02;44.55;98606.47;4972176;28;124014;-89
2022/06/21 00:27:15;;;;;;;1.17;1.03;;;20.50;65.00;;;21.01;44.54;98602.03;4982604;28;124031;-88
2022/06/21 00:29:42;;;;;;;1.30;1.00;;;20.50;65.00;;;20.99;44.88;98608.06;4975587;28;113381;-88
2022/06/21 00:32:13;;;;;;;1.23;1.13;;;20.40;65.00;;;20.98;44.50;98603.59;4979178;28;113946;-88
2022/06/21 00:34:41;;;;;;;1.60;1.03;;;20.40;65.10;;;20.97;44.83;98610.44;4986504;28;123083;-90
2022/06/21 00:37:19;;;;;;;1.73;1.10;;;20.40;65.10;;;20.94;44.74;98614.00;4987606;28;123497;-89
2022/06/21 00:39:46;;;;;;;1.67;1.10;;;20.40;65.00;;;20.92;44.47;98616.41;4984624;28;114414;-90
2022/06/21 00:42:25;;;;;;;1.10;1.00;;;20.40;65.00;;;20.90;44.71;98613.16;4969446;28;113378;-89
2022/06/21 00:45:13;;;;;;;1.10;1.00;;;20.40;65.00;;;20.87;44.56;98614.75;4973873;28;124497;-89
2022/06/21 00:47:51;;;;;;;1.10;1.00;;;20.40;65.00;;;20.86;44.57;98609.53;4975741;28;123925;-90
2022/06/21 00:50:29;;;;;;;1.10;0.90;;;20.30;64.80;;;20.84;44.44;98606.28;4966080;28;114753;-90
2022/06/21 00:53:13;;;;;;;1.60;1.17;;;20.30;64.80;;;20.82;44.26;98605.84;4984950;28;114453;-88
2022/06/21 00:55:51;;;;;;;1.00;0.90;;;20.30;64.60;;;20.81;44.15;98604.25;4975028;28;123982;-89
2022/06/21 00:58:22;;;;;;;2.13;0.90;;;20.30;64.60;;;20.80;44.39;98599.84;4974227;28;123603;-89
2022/06/21 01:00:55;;;;;;;1.10;1.00;;;20.30;64.50;;;20.79;44.10;98596.19;4960740;28;113597;-89
2022/06/21 01:03:29;;;;;;;1.03;0.90;;;20.20;64.30;;;20.77;44.04;98590.19;4996492;28;114048;-89
2022/06/21 01:06:01;;;;;;;1.03;0.90;;;20.20;64.10;;;20.74;44.08;98597.38;4978044;28;124390;-89
2022/06/21 01:08:35;;;;;;;1.47;1.20;;;20.20;64.10;;;20.72;44.05;98596.94;4972895;28;124126;-89
2022/06/21 01:11:21;;;;;;;1.00;0.90;;;20.20;63.90;;;20.71;43.60;98584.13;4980755;28;115239;-90
2022/06/21 01:13:52;;;;;;;1.53;1.00;;;20.20;63.80;;;20.68;43.94;98587.69;4998466;28;114017;-89
2022/06/21 01:16:20;;;;;;;1.20;1.00;;;20.10;63.60;;;20.62;43.91;98578.00;4979684;28;124712;-89
2022/06/21 01:18:47;;;;;;;1.50;1.20;;;20.10;63.40;;;20.58;43.83;98595.97;5002202;28;123831;-89
2022/06/21 01:21:17;;;;;;;1.30;1.20;;;20.10;63.50;;;20.55;43.78;98589.13;4966161;28;114291;-88
2022/06/21 01:24:08;;;;;;;1.10;0.90;;;20.00;63.40;;;20.56;43.75;98587.16;4974221;28;114162;-88
2022/06/21 01:26:45;;;;;;;1.73;1.10;;;20.00;63.40;;;20.54;43.75;98587.53;4978269;28;124103;-90
2022/06/21 01:29:19;;;;;;;1.50;1.30;;;20.00;63.50;;;20.53;43.69;98574.66;4988141;28;123894;-90
2022/06/21 01:31:47;;;;;;;1.47;1.27;;;20.00;63.40;;;20.51;43.81;98589.06;4975966;28;114324;-89
2022/06/21 01:34:26;;;;;;;1.73;1.30;;;20.00;63.30;;;20.51;43.68;98577.03;4977258;28;114363;-88
2022/06/21 01:36:58;;;;;;;1.40;1.00;;;20.00;63.30;;;20.50;43.72;98562.22;4964904;28;123294;-89
2022/06/21 01:39:39;;;;;;;1.33;1.20;;;19.90;63.30;;;20.49;43.47;98562.59;4984109;28;124011;-89
2022/06/21 01:42:10;;;;;;;1.60;1.30;;;19.90;63.20;;;20.45;43.59;98542.91;4975276;28;114307;-89
2022/06/21 01:44:48;;;;;;;1.77;1.07;;;19.90;63.20;;;20.45;43.53;98545.72;4983281;28;114067;-89
2022/06/21 01:47:22;;;;;;;1.53;1.17;;;19.90;63.20;;;20.42;43.67;98538.06;4984717;28;123926;-89
2022/06/21 01:50:03;;;;;;;1.63;1.37;;;19.90;63.20;;;20.41;43.77;98527.22;4983608;28;123825;-89
2022/06/21 01:52:32;;;;;;;1.47;1.20;;;19.80;63.40;;;20.37;43.69;98520.78;4973867;28;114223;-89
2022/06/21 01:55:12;;;;;;;1.20;1.10;;;19.80;63.20;;;20.28;43.90;98515.44;4985177;28;114353;-89
2022/06/21 01:57:39;;;;;;;1.20;0.93;;;19.80;63.20;;;20.19;43.72;98517.78;4981726;28;125305;-90
2022/06/21 02:00:07;;;;;;;1.97;1.03;;;19.60;63.10;;;20.13;43.93;98514.50;4974419;28;123781;-89
2022/06/21 02:03:09;;;;;;;1.30;1.10;;;19.60;63.30;;;20.06;44.21;98509.59;4981137;28;114639;-91
2022/06/21 02:05:43;;;;;;;1.70;1.03;;;19.60;63.40;;;20.04;43.97;98520.41;4984950;28;115077;-90
2022/06/21 02:08:15;;;;;;;1.20;1.10;;;19.50;63.40;;;20.03;44.12;98532.81;4978033;28;123203;-90
2022/06/21 02:10:51;;;;;;;1.33;0.90;;;19.50;63.40;;;20.02;44.14;98520.00;4972945;28;123710;-90
2022/06/21 02:13:33;;;;;;;1.47;1.00;;;19.50;63.50;;;20.01;44.24;98507.13;4969210;28;114564;-90
2022/06/21 02:16:07;;;;;;;1.07;0.97;;;19.50;63.50;;;20.00;43.96;98513.16;4980550;28;113998;-90
2022/06/21 02:18:41;;;;;;;1.53;1.03;;;19.50;63.60;;;19.93;44.17;98511.06;4980368;28;123989;-90
2022/06/21 02:21:26;;;;;;;1.50;0.97;;;19.40;63.40;;;19.86;44.05;98514.59;4974149;28;125940;-90
2022/06/21 02:23:55;;;;;;;1.40;1.10;;;19.40;63.40;;;19.81;44.26;98500.91;4984413;28;114274;-89
2022/06/21 02:26:24;;;;;;;1.33;1.23;;;19.30;63.30;;;19.78;44.37;98507.28;4972636;28;113570;-92
2022/06/21 02:28:51;;;;;;;1.53;1.30;;;19.30;63.40;;;19.74;43.94;98514.00;4968380;28;123685;-90
2022/06/21 02:31:21;;;;;;;8.13;1.47;;;19.30;63.20;;;19.62;44.19;98512.25;4980595;28;123681;-90
2022/06/21 02:33:48;;;;;;;1.40;1.13;;;19.20;63.10;;;19.51;44.40;98503.69;4964492;28;113802;-90
2022/06/21 02:36:26;;;;;;;3.23;1.60;;;19.10;63.20;;;19.45;44.61;98518.41;4982641;28;114278;-90
2022/06/21 02:38:57;;;;;;;1.57;1.47;;;19.00;63.20;;;19.42;44.41;98518.00;4984251;28;124048;-90
2022/06/21 02:41:39;;;;;;;1.20;1.10;;;19.00;63.30;;;19.42;44.38;98523.59;4984853;28;123493;-89
2022/06/21 02:44:44;;;;;;;2.50;1.23;;;19.00;63.40;;;19.39;44.36;98518.72;4984042;28;114335;-91
2022/06/21 02:47:29;;;;;;;1.20;1.10;;;19.00;63.40;;;19.39;44.38;98507.50;4966432;28;112984;-90
2022/06/21 02:50:14;;;;;;;2.00;1.30;;;18.90;63.40;;;19.36;44.36;98516.69;4999182;28;123510;-91
2022/06/21 02:52:42;;;;;;;1.30;1.20;;;18.90;63.30;;;19.32;44.34;98515.03;4993680;28;123298;-90
2022/06/21 02:55:24;;;;;;;2.90;1.43;;;18.80;63.20;;;19.25;44.35;98524.13;4981055;28;114923;-90
2022/06/21 02:58:18;;;;;;;1.53;1.30;;;18.80;63.20;;;19.22;44.58;98536.09;4978173;28;115461;-90
2022/06/21 03:00:47;;;;;;;1.60;1.20;;;18.80;63.40;;;19.19;44.45;98531.25;4979349;28;123920;-89
2022/06/21 03:03:19;;;;;;;2.10;1.23;;;18.70;63.30;;;19.19;44.55;98520.03;4973996;28;124193;-90
2022/06/21 03:05:51;;;;;;;4.93;1.30;;;18.60;63.30;;;19.22;44.71;98508.06;4979181;28;113370;-89
2022/06/21 03:08:18;;;;;;;1.77;1.00;;;18.70;63.50;;;19.28;44.56;98511.34;4984334;28;113876;-90
2022/06/21 03:10:48;;;;;;;1.20;1.10;;;18.70;63.40;;;19.31;44.45;98505.78;4975538;28;124075;-90
2022/06/21 03:13:16;;;;;;;1.67;1.00;;;18.80;63.30;;;19.34;44.31;98498.63;4971204;28;122997;-89
2022/06/21 03:15:52;;;;;;;1.80;1.30;;;18.80;63.40;;;19.33;44.16;98492.22;4992216;28;113699;-90
2022/06/21 03:18:25;;;;;;;1.43;1.10;;;18.80;63.30;;;19.35;44.39;98503.88;4986678;28;114079;-89
2022/06/21 03:20:53;;;;;;;1.30;1.10;;;18.80;63.30;;;19.37;44.32;98498.69;4962875;28;122141;-91
2022/06/21 03:23:21;;;;;;;1.13;0.90;;;18.80;63.30;;;19.42;44.35;98497.53;4978367;28;123909;-89
2022/06/21 03:26:00;;;;;;;1.43;1.13;;;18.90;63.40;;;19.45;44.15;98501.59;4980536;28;114164;-89
2022/06/21 03:28:28;;;;;;;1.57;1.00;;;18.90;63.40;;;19.47;43.92;98485.22;4977139;28;114039;-90
2022/06/21 03:31:20;;;;;;;2.33;1.20;;;18.90;63.40;;;19.49;44.17;98494.03;4974919;28;123271;-91
2022/06/21 03:33:53;;;;;;;1.10;1.00;;;18.90;63.30;;;19.51;44.02;98492.47;4973332;28;123954;-90
2022/06/21 03:36:24;;;;;;;1.40;1.10;;;18.90;63.30;;;19.53;44.20;98489.28;4980955;28;113282;-89
2022/06/21 03:42:32;;;;;;;2.00;1.50;;;18.90;63.20;;;19.50;43.88;98479.63;4978463;28;124614;-89
2022/06/21 03:45:10;;;;;;;2.80;1.30;;;18.90;63.30;;;19.51;44.03;98480.47;4983109;28;122509;-90
2022/06/21 03:47:46;;;;;;;2.07;1.30;;;18.90;63.20;;;19.46;44.06;98484.41;4968560;28;115070;-89
2022/06/21 03:50:37;;;;;;;1.60;1.50;;;18.90;63.10;;;19.46;44.07;98490.00;4975645;28;115084;-90
2022/06/21 03:53:19;;;;;;;1.27;1.17;;;18.90;63.20;;;19.51;43.91;98486.06;4979820;28;124322;-89
2022/06/21 03:55:58;;;;;;;3.00;1.40;;;18.90;63.20;;;19.56;44.05;98485.75;4972336;28;123836;-89
2022/06/21 03:58:41;;;;;;;1.73;1.00;;;18.90;63.10;;;19.60;43.80;98495.00;4974744;28;113920;-88
2022/06/21 04:01:22;;;;;;;1.37;1.20;;;19.00;63.00;;;19.65;43.57;98477.84;4978770;28;114149;-88
2022/06/21 04:04:14;;;;;;;1.77;1.10;;;19.10;63.00;;;19.72;43.56;98469.56;4973951;28;123865;-90
2022/06/21 04:07:03;;;;;;;2.07;1.07;;;19.10;62.80;;;19.77;43.40;98466.44;4986916;28;123855;-89
2022/06/21 04:09:52;;;;;;;1.97;1.50;;;19.20;62.60;;;19.78;42.97;98472.84;4973108;28;114026;-89
2022/06/21 04:12:53;;;;;;;1.50;1.40;;;19.20;62.40;;;19.77;43.17;98469.22;4974878;28;114178;-88
2022/06/21 04:16:07;;;;;;;1.40;1.20;;;19.20;62.20;;;19.78;43.25;98461.63;4983075;28;125110;-89
2022/06/21 04:18:54;;;;;;;1.47;1.20;;;19.20;62.20;;;19.81;42.84;98461.66;4971049;28;123382;-89
2022/06/21 04:21:26;;;;;;;2.37;1.37;;;19.20;61.90;;;19.77;42.77;98460.81;4977469;28;114144;-89
2022/06/21 04:24:00;;;;;;;3.73;1.50;;;19.20;61.20;;;19.76;42.60;98470.41;4983576;28;113347;-89
2022/06/21 04:26:36;;;;;;;2.43;1.43;;;19.20;61.20;;;19.78;42.48;98472.84;4986306;28;124233;-89
2022/06/21 04:29:26;;;;;;;1.77;1.30;;;19.20;61.00;;;19.81;42.77;98467.25;4979768;28;123809;-88
2022/06/21 04:32:07;;;;;;;1.87;1.20;;;19.30;61.20;;;19.85;42.76;98470.94;4983181;28;114359;-88
2022/06/21 04:34:48;;;;;;;1.80;1.23;;;19.30;61.20;;;19.94;42.70;98475.44;4969098;28;113093;-89
2022/06/21 04:37:35;;;;;;;1.83;1.30;;;19.30;61.30;;;20.02;42.30;98460.28;4975613;28;123822;-89
2022/06/21 04:40:24;;;;;;;2.27;1.70;;;19.40;61.20;;;20.11;42.15;98463.59;4968627;28;122759;-88
2022/06/21 04:43:00;;;;;;;1.97;1.17;;;19.40;61.20;;;20.19;42.03;98458.84;4970807;28;115300;-89
2022/06/21 04:45:38;;;;;;;1.73;1.47;;;19.50;61.00;;;20.26;42.25;98459.75;4976710;28;114736;-89
2022/06/21 04:48:38;;;;;;;1.57;1.13;;;19.60;61.10;;;20.30;41.91;98466.19;4968405;28;124083;-89
2022/06/21 04:51:16;;;;;;;2.37;1.60;;;19.60;60.80;;;20.31;41.81;98455.78;4975699;28;123161;-87
2022/06/21 04:54:04;;;;;;;3.80;2.40;;;19.70;60.50;;;20.29;41.62;98447.75;4974971;28;114211;-87
2022/06/21 04:57:05;;;;;;;1.90;1.47;;;19.70;60.00;;;20.25;41.57;98446.88;4976205;28;114068;-88
2022/06/21 04:59:38;;;;;;;2.03;1.60;;;19.70;59.90;;;20.29;41.39;98444.94;4987922;28;123600;-86
2022/06/21 05:02:13;;;;;;;2.87;1.63;;;19.70;60.00;;;20.36;41.29;98460.22;4993550;28;123232;-88
2022/06/21 05:04:42;;;;;;;2.00;1.57;;;19.70;60.00;;;20.41;41.50;98459.88;4988265;28;114478;-88
2022/06/21 05:07:23;;;;;;;1.97;1.40;;;19.80;60.10;;;20.46;41.42;98462.31;4987235;28;114001;-88
2022/06/21 05:09:53;;;;;;;2.47;1.77;;;19.80;59.80;;;20.50;41.57;98454.75;4982230;28;123471;-89
2022/06/21 05:12:37;;;;;;;4.67;1.50;;;19.90;60.10;;;20.57;41.27;98457.63;4973191;28;123653;-88
2022/06/21 05:15:17;;;;;;;2.70;1.37;;;19.90;60.00;;;20.62;41.38;98457.28;4986473;28;114755;-88
2022/06/21 05:17:55;;;;;;;3.30;1.30;;;20.00;59.80;;;20.69;41.21;98454.53;4975207;28;114116;-90
2022/06/21 05:20:28;;;;;;;4.23;1.60;;;20.00;59.80;;;20.71;41.05;98456.94;4976746;28;124478;-88
2022/06/21 05:22:58;;;;;;;1.70;1.30;;;20.10;59.60;;;20.74;41.00;98461.81;4975108;28;123108;-88
2022/06/21 05:25:40;;;;;;;2.43;1.50;;;20.10;59.40;;;20.79;40.73;98460.63;4978249;28;113563;-87
2022/06/21 05:28:35;;;;;;;2.83;1.73;;;20.20;59.20;;;20.75;40.00;98455.00;4975095;28;113704;-87
2022/06/21 05:31:14;;;;;;;7.77;1.97;;;20.10;58.20;;;20.71;40.44;98448.53;4976115;28;124807;-87
2022/06/21 05:34:16;;;;;;;2.00;1.80;;;20.10;58.30;;;20.72;40.34;98448.16;4973815;28;123284;-88
2022/06/21 05:37:05;;;;;;;2.27;1.67;;;20.20;58.50;;;20.80;40.12;98451.03;4979199;28;114433;-88
2022/06/21 05:39:46;;;;;;;1.83;1.50;;;20.20;58.40;;;20.89;39.97;98451.47;4976132;28;115294;-89
2022/06/21 05:42:14;;;;;;;2.13;1.43;;;20.30;58.30;;;20.96;39.86;98454.34;4986102;28;124195;-86
2022/06/21 05:44:52;;;;;;;1.93;1.67;;;20.30;58.30;;;21.07;39.96;98457.22;4984216;28;123993;-88
2022/06/21 05:47:37;;;;;;;7.27;1.70;;;20.40;58.20;;;21.13;39.17;98453.66;4959783;28;114351;-89
2022/06/21 05:50:08;;;;;;;3.13;1.87;;;20.50;57.70;;;21.16;39.58;98460.50;4960284;28;113059;-88
2022/06/21 05:52:42;;;;;;;2.23;1.60;;;20.50;57.50;;;21.19;38.84;98456.88;4976194;28;123928;-87
2022/06/21 05:55:33;;;;;;;2.13;1.80;;;20.50;56.90;;;21.14;39.14;98458.09;4973434;28;124075;-86
2022/06/21 05:58:10;;;;;;;2.00;1.70;;;20.60;56.80;;;21.15;39.01;98456.06;4961606;28;114201;-89
2022/06/21 06:01:09;;;;;;;2.60;1.67;;;20.60;57.00;;;21.14;39.06;98471.31;4976700;28;114528;-90
2022/06/21 06:03:47;;;;;;;2.73;1.43;;;20.60;56.80;;;21.16;39.41;98475.34;4985344;28;124599;-88
2022/06/21 06:06:20;;;;;;;2.43;1.57;;;20.60;56.80;;;21.23;39.23;98471.78;4984219;28;123831;-89
2022/06/21 06:08:53;;;;;;;2.23;1.47;;;20.60;57.00;;;21.26;39.21;98476.63;4973376;28;114305;-89
2022/06/21 06:11:57;;;;;;;3.30;1.83;;;20.70;56.80;;;21.26;39.09;98475.81;4986110;28;114151;-90
2022/06/21 06:14:17;;;;;;;1.83;1.53;;;20.70;56.40;;;21.24;38.94;98478.19;4982620;28;123263;-88
2022/06/21 06:16:49;;;;;;;1.97;1.43;;;20.70;56.20;;;21.27;38.60;98464.16;4975760;28;123554;-89
2022/06/21 06:19:35;;;;;;;2.90;1.60;;;20.70;56.20;;;21.29;38.70;98470.22;4987321;28;114850;-86
2022/06/21 06:22:28;;;;;;;1.57;1.27;;;20.80;56.10;;;21.32;38.66;98474.22;4984795;28;114028;-87
2022/06/21 06:25:06;;;;;;;4.93;1.40;;;20.80;56.10;;;21.36;38.23;98466.66;4977015;28;124146;-87
2022/06/21 06:27:45;;;;;;;3.40;1.30;;;20.90;56.10;;;21.45;38.30;98466.31;4983072;28;123839;-87
2022/06/21 06:30:22;;;;;;;1.77;1.30;;;20.90;56.10;;;21.55;38.52;98480.44;4978629;28;116247;-86
2022/06/21 06:33:06;;;;;;;1.60;1.20;;;21.00;56.10;;;21.65;37.89;98480.84;4980074;28;114912;-87
2022/06/21 06:35:33;;;;;;;2.50;1.40;;;21.00;55.80;;;21.70;37.86;98478.47;4985794;28;124755;-87
2022/06/21 06:38:00;;;;;;;2.30;1.30;;;21.00;55.30;;;21.75;37.90;98474.47;4984300;28;123938;-87
2022/06/21 06:40:41;;;;;;;1.80;1.30;;;21.10;55.50;;;21.78;37.66;98468.88;4984423;28;114371;-88
2022/06/21 06:43:17;;;;;;;1.87;1.40;;;21.20;55.40;;;21.85;37.59;98468.09;4972121;28;114369;-85
2022/06/21 06:45:43;;;;;;;1.43;1.33;;;21.20;55.30;;;21.93;37.65;98466.13;4971241;28;124495;-86
2022/06/21 06:48:29;;;;;;;1.53;1.10;;;21.30;55.10;;;21.95;37.82;98458.91;4972762;28;124254;-86
2022/06/21 06:51:06;;;;;;;2.83;1.67;;;21.30;55.00;;;22.04;37.54;98464.13;4981588;28;115073;-86
2022/06/21 06:53:44;;;;;;;2.00;1.80;;;21.40;55.10;;;22.13;37.26;98463.75;4981183;28;114158;-86
2022/06/21 06:56:17;;;;;;;1.60;1.40;;;21.50;55.10;;;22.21;37.14;98452.13;4972120;28;124435;-86
2022/06/21 06:58:49;;;;;;;3.87;1.60;;;21.50;55.10;;;22.32;37.58;98445.72;4977016;28;125106;-86
2022/06/21 07:01:37;;;;;;;2.33;1.63;;;21.60;55.10;;;22.36;37.09;98449.38;4973618;28;114517;-85
2022/06/21 07:04:04;;;;;;;1.50;1.40;;;21.70;54.70;;;22.43;37.26;98457.81;4985288;28;114037;-86
2022/06/21 07:06:41;;;;;;;4.37;1.67;;;21.80;54.80;;;22.53;36.74;98456.22;4981094;28;123898;-87
2022/06/21 07:09:19;;;;;;;2.07;1.50;;;21.80;54.70;;;22.63;37.00;98461.84;4974240;28;123895;-86
2022/06/21 07:12:14;;;;;;;2.30;1.60;;;22.00;54.80;;;22.71;36.68;98471.91;4981802;28;115135;-85
2022/06/21 07:14:40;;;;;;;3.57;1.60;;;22.00;54.60;;;22.81;36.50;98466.66;4978999;28;113535;-85
2022/06/21 07:17:17;;;;;;;3.13;1.73;;;22.10;54.20;;;22.82;36.30;98473.94;4979783;28;125431;-85
2022/06/21 07:19:43;;;;;;;4.07;1.60;;;22.10;54.20;;;22.82;36.44;98474.72;4989642;28;123622;-86
2022/06/21 07:22:21;;;;;;;2.17;1.43;;;22.20;53.90;;;22.86;36.54;98489.63;4973027;28;115252;-86
2022/06/21 07:25:36;;;;;;;1.80;1.53;;;22.20;53.80;;;22.83;36.48;98492.44;4970475;28;113633;-85
2022/06/21 07:28:34;;;;;;;5.43;1.90;;;22.30;53.70;;;22.83;36.49;98498.84;4966164;28;123023;-87
2022/06/21 07:31:18;;;;;;;3.20;1.50;;;22.30;53.60;;;22.86;36.72;98491.63;4984219;28;123832;-86
2022/06/21 07:34:07;;;;;;;4.43;2.40;;;22.30;53.70;;;22.94;36.23;98491.25;4977139;28;114337;-86
2022/06/21 07:36:49;;;;;;;3.57;1.73;;;22.40;53.80;;;22.99;36.49;98500.50;4983969;28;113964;-85
2022/06/21 07:39:37;;;;;;;4.70;1.60;;;22.40;53.80;;;23.01;36.64;98492.47;4980562;28;124595;-86
2022/06/21 07:42:19;;;;;;;4.40;2.17;;;22.40;53.70;;;23.05;36.69;98484.78;4977342;28;123593;-87
2022/06/21 07:44:57;;;;;;;3.20;1.80;;;22.50;53.80;;;23.09;36.19;98483.59;4979445;28;115089;-86
2022/06/21 07:47:43;;;;;;;3.20;1.97;;;22.50;53.80;;;23.13;36.28;98475.13;4970751;28;112804;-86
2022/06/21 07:50:42;;;;;;;3.97;1.83;;;22.60;53.70;;;23.16;36.04;98460.25;4973405;28;124078;-87
2022/06/21 07:53:30;;;;;;;2.27;1.37;;;22.60;53.50;;;23.16;36.03;98457.44;4985777;28;123403;-86
2022/06/21 07:56:18;;;;;;;2.37;1.90;;;22.60;53.40;;;23.17;36.24;98450.56;4971442;28;114363;-87
2022/06/21 07:59:15;;;;;;;3.10;1.73;;;22.60;53.30;;;23.16;35.99;98443.34;4973580;28;114084;-87
2022/06/21 08:07:42;;;;;;;3.03;1.80;;;22.60;52.90;;;23.37;35.64;98425.53;4976760;28;114748;-85
2022/06/21 08:10:36;;;;;;;8.00;2.57;;;22.70;52.90;;;23.42;35.62;98413.03;4979447;28;114134;-85
2022/06/21 08:13:03;;;;;;;4.57;1.50;;;22.80;52.80;;;23.45;35.29;98404.56;4989194;28;124228;-87
2022/06/21 08:15:42;;;;;;;3.20;1.70;;;22.80;52.60;;;23.45;35.26;98415.03;4977183;28;123904;-87
2022/06/21 08:18:51;;;;;;;3.77;1.87;;;22.90;52.40;;;23.44;35.42;98402.16;4974399;28;115839;-88
2022/06/21 08:21:36;;;;;;;2.77;1.60;;;22.90;52.30;;;23.41;35.48;98415.06;4983350;28;115472;-87
2022/06/21 08:24:16;;;;;;;2.03;1.47;;;22.90;52.40;;;23.46;35.44;98422.31;4988649;28;124266;-86
2022/06/21 08:27:19;;;;;;;3.03;1.70;;;22.90;52.40;;;23.44;35.34;98408.59;5006493;28;123388;-84
2022/06/21 08:29:55;;;;;;;3.90;1.70;;;22.90;52.10;;;23.43;35.37;98417.47;4992326;28;113705;-86
2022/06/21 08:32:54;;;;;;;1.70;1.30;;;22.90;52.10;;;23.43;35.55;98403.38;4983936;28;115031;-86
2022/06/21 08:35:34;;;;;;;1.87;1.50;;;22.90;52.30;;;23.43;35.64;98400.53;4979450;28;123472;-86
2022/06/21 08:38:28;;;;;;;2.20;1.57;;;22.90;52.20;;;23.48;35.57;98405.75;4977369;28;123807;-86
2022/06/21 08:48:41;;;;;;;2.90;1.53;;;23.00;52.20;;;23.49;35.74;98446.88;4990592;28;125255;-86
2022/06/21 08:51:26;;;;;;;3.57;1.80;;;23.00;52.30;;;23.56;35.64;98453.28;4990847;28;123164;-86
2022/06/21 08:54:43;;;;;;;2.80;1.50;;;23.00;52.40;;;23.50;35.52;98429.53;4968703;28;114391;-87
2022/06/21 08:57:30;;;;;;;2.70;1.87;;;23.00;52.10;;;23.51;35.38;98402.16;4969377;28;112358;-86
2022/06/21 09:00:03;;;;;;;2.60;1.40;;;23.00;52.20;;;23.52;35.87;98403.75;4981144;28;125119;-86
2022/06/21 09:02:40;;;;;;;1.90;1.30;;;23.00;52.40;;;23.60;35.67;98402.50;4978497;28;123111;-86
2022/06/21 09:05:37;;;;;;;1.30;1.20;;;23.10;52.50;;;23.65;35.78;98407.72;4973952;28;114400;-86
2022/06/21 09:08:33;;;;;;;2.53;1.50;;;23.10;52.60;;;23.70;35.82;98406.50;4976768;28;113914;-85
2022/06/21 09:11:54;;;;;;;2.73;1.63;;;23.20;52.70;;;23.69;35.73;98408.50;4981592;28;124757;-85
2022/06/21 09:14:52;;;;;;;2.33;1.70;;;23.20;52.50;;;23.75;35.77;98412.53;5013461;28;123802;-85
2022/06/21 09:18:09;;;;;;;2.43;1.70;;;23.20;52.60;;;23.85;35.68;98401.59;5003281;28;115768;-86
2022/06/21 09:21:05;;;;;;;1.83;1.53;;;23.20;52.70;;;23.91;35.58;98403.59;5012634;28;115000;-87
2022/06/21 09:24:27;;;;;;;2.47;1.50;;;23.40;52.80;;;23.92;35.43;98404.38;4985628;28;124082;-86
2022/06/21 09:27:17;;;;;;;1.93;1.50;;;23.30;52.50;;;23.97;35.62;98406.78;4973638;28;123909;-87
2022/06/21 09:30:17;;;;;;;2.90;1.60;;;23.40;52.60;;;24.01;35.47;98413.19;4998825;28;114332;-87
2022/06/21 09:33:10;;;;;;;3.30;2.00;;;23.50;52.50;;;24.01;35.53;98416.00;4992709;28;115941;-86
2022/06/21 09:35:55;;;;;;;4.50;1.53;;;23.50;52.30;;;24.06;35.41;98415.59;4994329;28;124008;-87
2022/06/21 09:38:48;;;;;;;2.43;1.97;;;23.50;52.40;;;24.10;35.39;98407.09;4992181;28;122357;-85
2022/06/21 09:41:16;;;;;;;2.43;1.70;;;23.60;52.40;;;24.16;35.41;98409.06;4985118;28;114208;-86
2022/06/21 09:44:01;;;;;;;2.13;1.60;;;23.60;52.40;;;24.22;35.42;98401.75;4982899;28;114578;-86
2022/06/21 09:46:51;;;;;;;3.00;1.67;;;23.60;52.40;;;24.29;35.50;98408.56;4983492;28;124864;-87
2022/06/21 09:50:09;;;;;;;2.90;1.80;;;23.70;52.50;;;24.30;35.19;98411.00;4988534;28;124478;-85
2022/06/21 09:52:56;;;;;;;3.97;1.90;;;23.70;52.10;;;24.33;35.17;98424.28;4989963;28;114515;-86
2022/06/21 09:55:41;;;;;;;3.60;2.13;;;23.80;52.20;;;24.33;35.21;98412.97;4972920;28;114040;-85
2022/06/21 09:58:34;;;;;;;2.40;1.80;;;23.80;52.20;;;24.33;35.25;98386.75;4983457;28;125016;-85
2022/06/21 10:01:37;;;;;;;1.60;1.30;;;23.80;52.20;;;24.40;35.43;98384.69;4986208;28;122159;-86
2022/06/21 10:04:48;;;;;;;2.67;2.07;;;23.90;52.50;;;24.50;35.52;98380.19;4981630;28;115002;-85
2022/06/21 10:07:36;;;;;;;3.00;1.60;;;23.90;52.60;;;24.63;35.55;98369.97;4976448;28;114741;-85
2022/06/21 10:10:23;;;;;;;2.90;2.00;;;24.00;52.70;;;24.71;35.25;98381.22;4986918;28;125907;-85
2022/06/21 10:13:14;;;;;;;3.93;2.10;;;24.10;52.70;;;24.74;35.21;98372.72;4980292;28;124943;-86
2022/06/21 10:16:14;;;;;;;4.57;2.70;;;24.20;52.80;;;24.75;35.40;98365.06;4976823;28;115358;-85
2022/06/21 10:18:59;;;;;;;2.93;1.93;;;24.20;52.80;;;24.78;35.19;98369.88;4990415;28;115295;-85
2022/06/21 10:22:02;;;;;;;4.77;2.30;;;24.20;52.70;;;24.81;35.44;98366.19;4979826;28;124645;-85
2022/06/21 10:24:37;;;;;;;4.10;1.90;;;24.20;52.60;;;24.85;35.30;98364.13;4991334;28;123956;-86
2022/06/21 10:27:19;;;;;;;1.93;1.73;;;24.30;52.80;;;24.90;35.30;98355.19;4990691;28;113836;-85
2022/06/21 10:30:16;;;;;;;3.03;2.10;;;24.30;52.80;;;24.94;35.37;98344.66;5004419;28;114552;-86
2022/06/21 10:33:10;;;;;;;3.93;2.20;;;24.40;52.80;;;25.00;35.44;98342.19;4980195;28;125075;-85
2022/06/21 10:36:07;;;;;;;6.37;2.50;;;24.40;52.90;;;25.04;35.41;98334.44;4980566;28;124186;-85
2022/06/21 10:38:43;;;;;;;3.20;2.03;;;25.70;53.80;;;25.07;35.28;98331.59;4982485;28;114559;-85
2022/06/21 10:41:37;;;;;;;3.10;2.20;;;24.50;53.00;;;25.10;35.68;98324.31;4988446;28;113717;-85
2022/06/21 10:44:27;;;;;;;5.20;2.77;;;24.60;53.00;;;25.12;35.80;98316.22;4973191;28;123988;-85
2022/06/21 10:47:07;;;;;;;4.13;1.97;;;24.60;53.20;;;25.20;35.70;98311.25;4980095;28;123941;-86
2022/06/21 10:50:07;;;;;;;4.47;2.03;;;24.70;53.20;;;25.27;35.78;98305.53;4978475;28;114223;-85
2022/06/21 10:52:46;;;;;;;2.77;2.00;;;24.70;53.20;;;25.32;35.63;98294.53;4985576;28;114414;-89
2022/06/21 10:55:37;;;;;;;4.57;2.30;;;24.80;53.50;;;25.41;35.63;98298.88;4977064;28;125888;-88
2022/06/21 10:59:04;;;;;;;3.87;2.30;;;24.90;53.70;;;25.48;35.64;98279.78;4973166;28;123326;-86
2022/06/21 11:02:00;;;;;;;3.33;2.43;;;25.00;53.70;;;25.55;36.05;98279.69;4979818;28;113940;-85
2022/06/21 11:04:52;;;;;;;3.00;2.40;;;25.00;53.60;;;25.66;35.90;98281.56;4977491;28;115127;-84
2022/06/21 11:08:04;;;;;;;7.13;2.77;;;25.10;53.70;;;25.75;35.80;98279.00;4975521;28;124758;-84
2022/06/21 11:11:01;;;;;;;4.03;2.90;;;25.20;54.00;;;25.81;36.05;98282.94;4974499;28;124645;-84
2022/06/21 11:13:38;;;;;;;4.20;2.70;;;25.30;54.30;;;25.92;35.99;98277.16;4990764;28;114466;-84
2022/06/21 11:16:17;;;;;;;4.77;2.67;;;25.40;54.40;;;26.01;36.00;98291.56;4986608;28;115249;-84
2022/06/21 11:19:20;;;;;;;4.03;2.73;;;25.40;54.40;;;26.05;35.86;98283.00;4982185;28;124189;-84
2022/06/21 11:22:05;;;;;;;6.63;2.40;;;25.50;54.40;;;26.14;36.20;98274.75;4986107;28;123891;-84
2022/06/21 11:25:17;;;;;;;4.37;2.00;;;25.60;54.30;;;26.22;35.84;98277.06;4987958;28;113915;-84
2022/06/21 11:28:31;;;;;;;3.43;2.60;;;25.70;54.30;;;26.34;36.28;98274.84;4975713;28;113884;-84
2022/06/21 11:31:20;;;;;;;2.83;2.03;;;25.80;54.40;;;26.41;36.12;98269.84;4987066;28;124206;-84
2022/06/21 11:34:09;;;;;;;3.53;2.33;;;25.80;54.40;;;26.52;36.10;98258.34;4984913;28;124117;-83